Time;durP1;ratioP1;P1;durP2;ratioP2;P2;SDS_P1;SDS_P2;PMS_P1;PMS_P2;Temp;Humidity;BMP_temperature;BMP_pressure;BME280_temperature;BME280_humidity;BME280_pressure;Samples;Min_cycle;Max_cycle;Signal;HPM_P1;HPM_P2
2023/12/06 00:01:59;;;;;;;1.33;1.03;;;1.40;99.90;;;;;;5076773;28;20745;-81
2023/12/06 00:04:26;;;;;;;1.47;1.10;;;1.40;99.90;;;;;;5075417;28;20032;-81
2023/12/06 00:06:52;;;;;;;2.70;1.80;;;1.40;99.90;;;;;;5075511;28;20119;-81
2023/12/06 00:09:18;;;;;;;2.20;1.00;;;1.40;99.90;;;;;;5077150;28;20051;-81
2023/12/06 00:11:44;;;;;;;1.70;1.17;;;1.40;99.90;;;;;;5075605;28;20028;-80
2023/12/06 00:14:09;;;;;;;2.30;1.20;;;1.40;99.90;;;;;;5075446;28;20897;-81
2023/12/06 00:16:39;;;;;;;4.23;1.33;;;1.40;99.90;;;;;;5075607;28;20118;-80
2023/12/06 00:19:04;;;;;;;2.63;1.30;;;1.50;99.90;;;;;;5076797;28;20024;-81
2023/12/06 00:21:30;;;;;;;2.37;1.40;;;1.50;99.90;;;;;;5077433;28;20032;-81
2023/12/06 00:23:55;;;;;;;1.53;1.20;;;1.50;99.90;;;;;;5076700;28;20043;-81
2023/12/06 00:26:21;;;;;;;2.63;1.70;;;1.60;99.90;;;;;;5075312;28;20971;-80
2023/12/06 00:28:47;;;;;;;1.67;1.27;;;1.60;99.90;;;;;;5071267;28;20036;-81
2023/12/06 00:31:13;;;;;;;1.30;1.03;;;1.70;99.90;;;;;;5070462;28;20059;-81
2023/12/06 00:33:38;;;;;;;1.47;1.13;;;1.70;99.90;;;;;;5069186;28;20063;-81
2023/12/06 00:36:04;;;;;;;1.77;1.40;;;1.70;99.90;;;;;;5067212;28;20028;-81
2023/12/06 00:38:31;;;;;;;2.80;1.50;;;1.80;99.90;;;;;;5064879;28;20025;-81
2023/12/06 00:40:57;;;;;;;1.70;1.23;;;1.80;99.90;;;;;;5064794;28;20112;-81
2023/12/06 00:43:22;;;;;;;2.10;1.23;;;1.80;99.90;;;;;;5066359;28;21448;-81
2023/12/06 00:45:48;;;;;;;1.80;1.27;;;1.90;99.90;;;;;;5064470;28;20538;-81
2023/12/06 00:48:13;;;;;;;2.33;1.43;;;1.90;99.90;;;;;;5068849;28;20020;-81
2023/12/06 00:50:39;;;;;;;2.17;1.50;;;2.00;99.90;;;;;;5075909;28;20028;-81
2023/12/06 00:53:04;;;;;;;1.67;1.33;;;2.00;99.90;;;;;;5071661;28;20735;-81
2023/12/06 00:55:30;;;;;;;1.37;1.23;;;1.90;99.90;;;;;;5073435;28;20108;-81
2023/12/06 00:57:56;;;;;;;1.90;1.20;;;2.00;99.90;;;;;;5070745;28;20047;-80
2023/12/06 01:00:21;;;;;;;1.50;1.23;;;2.00;99.90;;;;;;5072594;28;20151;-81
2023/12/06 01:02:47;;;;;;;2.13;1.30;;;2.00;99.90;;;;;;5074250;28;20024;-81
2023/12/06 01:05:12;;;;;;;1.43;1.10;;;2.10;99.90;;;;;;5072931;28;20043;-81
2023/12/06 01:07:38;;;;;;;3.40;1.30;;;2.10;99.90;;;;;;5070238;28;20031;-81
2023/12/06 01:10:04;;;;;;;1.57;1.10;;;2.10;99.90;;;;;;5070243;28;20462;-81
2023/12/06 01:12:30;;;;;;;1.47;1.10;;;2.10;99.90;;;;;;5069705;28;20040;-81
2023/12/06 01:14:55;;;;;;;1.63;1.20;;;2.20;99.90;;;;;;5073993;28;20039;-81
2023/12/06 01:17:21;;;;;;;2.27;1.13;;;2.20;99.90;;;;;;5077132;28;20028;-81
2023/12/06 01:19:46;;;;;;;1.47;1.10;;;2.20;99.90;;;;;;5076830;28;20058;-81
2023/12/06 01:22:12;;;;;;;1.80;1.10;;;2.10;99.90;;;;;;5077235;28;20147;-81
2023/12/06 01:24:37;;;;;;;1.37;1.00;;;2.10;99.90;;;;;;5079382;28;20770;-81
2023/12/06 01:27:04;;;;;;;1.47;0.90;;;2.20;99.90;;;;;;5085249;28;20035;-81
2023/12/06 01:29:29;;;;;;;1.10;0.93;;;2.10;99.90;;;;;;5081657;28;20036;-82
2023/12/06 01:31:55;;;;;;;1.10;0.90;;;2.10;99.90;;;;;;5073747;28;20047;-82
2023/12/06 01:34:21;;;;;;;1.10;1.00;;;2.10;99.90;;;;;;5070063;28;20100;-82
2023/12/06 01:36:47;;;;;;;1.70;1.10;;;2.10;99.90;;;;;;5070601;28;20115;-82
2023/12/06 01:39:12;;;;;;;1.17;0.97;;;2.20;99.90;;;;;;5072106;28;20033;-81
2023/12/06 01:41:38;;;;;;;1.20;1.00;;;2.10;99.90;;;;;;5071699;28;20043;-82
2023/12/06 01:44:03;;;;;;;1.23;0.83;;;2.10;99.90;;;;;;5071893;28;20036;-82
2023/12/06 01:46:29;;;;;;;1.47;1.00;;;2.10;99.90;;;;;;5071247;28;20032;-81
2023/12/06 01:48:56;;;;;;;1.23;0.90;;;2.10;99.90;;;;;;5069441;28;20066;-82
2023/12/06 01:51:23;;;;;;;1.80;1.40;;;2.20;99.90;;;;;;5070598;28;20036;-82
2023/12/06 01:53:48;;;;;;;0.80;0.80;;;2.20;99.90;;;;;;5070647;28;20048;-82
2023/12/06 01:56:15;;;;;;;1.00;0.90;;;2.20;99.90;;;;;;5069980;28;20028;-82
2023/12/06 01:58:41;;;;;;;1.10;0.90;;;2.20;99.90;;;;;;5070215;28;20548;-82
2023/12/06 02:01:06;;;;;;;1.03;0.90;;;2.30;99.90;;;;;;5069978;28;20046;-82
2023/12/06 02:03:34;;;;;;;1.30;0.93;;;2.30;99.90;;;;;;5069804;28;20047;-83
2023/12/06 02:06:02;;;;;;;1.20;0.90;;;2.30;99.90;;;;;;5069893;28;20049;-82
2023/12/06 02:08:28;;;;;;;1.60;1.00;;;2.30;99.90;;;;;;5069367;28;20035;-82
2023/12/06 02:10:53;;;;;;;0.90;0.80;;;2.30;99.90;;;;;;5070742;28;20024;-82
2023/12/06 02:13:19;;;;;;;1.27;1.00;;;2.30;99.90;;;;;;5070193;28;20036;-82
2023/12/06 02:15:47;;;;;;;1.27;0.87;;;2.20;99.90;;;;;;5069299;28;20033;-82
2023/12/06 02:18:13;;;;;;;0.90;0.70;;;2.20;99.90;;;;;;5065656;28;20041;-82
2023/12/06 02:20:40;;;;;;;1.57;0.90;;;2.20;99.90;;;;;;5071114;28;20118;-82
2023/12/06 02:23:07;;;;;;;1.57;0.90;;;2.20;99.90;;;;;;5069926;28;20032;-82
2023/12/06 02:25:33;;;;;;;1.83;1.20;;;2.20;99.90;;;;;;5067696;28;20028;-82
2023/12/06 02:27:59;;;;;;;1.77;1.10;;;2.20;99.90;;;;;;5069169;28;20058;-82
2023/12/06 02:30:24;;;;;;;1.60;1.00;;;2.10;99.90;;;;;;5073246;28;20024;-82
2023/12/06 02:32:50;;;;;;;1.47;1.00;;;2.10;99.90;;;;;;5073313;28;20489;-82
2023/12/06 02:35:23;;;;;;;1.10;1.00;;;2.10;99.90;;;;;;5072493;28;20031;-82
2023/12/06 02:37:51;;;;;;;1.20;1.00;;;2.10;99.90;;;;;;5073861;28;20137;-82
2023/12/06 02:40:19;;;;;;;1.00;0.90;;;2.10;99.90;;;;;;5072848;28;20556;-82
2023/12/06 02:42:45;;;;;;;1.17;1.07;;;2.00;99.90;;;;;;5071319;28;20507;-83
2023/12/06 02:45:10;;;;;;;1.10;1.00;;;2.10;99.90;;;;;;5072598;28;20043;-83
2023/12/06 02:47:36;;;;;;;1.27;1.00;;;2.00;99.90;;;;;;5073131;28;20609;-83
2023/12/06 02:50:02;;;;;;;1.33;0.80;;;2.10;99.90;;;;;;5071408;28;20445;-82
2023/12/06 02:52:28;;;;;;;1.37;1.00;;;2.10;99.90;;;;;;5072113;28;20475;-83
2023/12/06 02:54:53;;;;;;;1.03;0.90;;;2.10;99.90;;;;;;5070399;28;20040;-83
2023/12/06 02:57:19;;;;;;;1.80;1.00;;;2.00;99.90;;;;;;5071227;28;20047;-83
2023/12/06 02:59:44;;;;;;;2.47;1.23;;;2.00;99.90;;;;;;5070187;28;20043;-83
2023/12/06 03:02:10;;;;;;;1.47;0.90;;;2.00;99.90;;;;;;5072351;28;20736;-83
2023/12/06 03:04:35;;;;;;;1.10;0.90;;;2.00;99.90;;;;;;5072754;28;20036;-83
2023/12/06 03:07:01;;;;;;;1.80;1.00;;;2.00;99.90;;;;;;5071055;28;20957;-83
2023/12/06 03:09:26;;;;;;;1.20;1.10;;;2.00;99.90;;;;;;5071637;28;20045;-82
2023/12/06 03:11:52;;;;;;;2.33;1.27;;;2.00;99.90;;;;;;5072332;28;20032;-83
2023/12/06 03:14:17;;;;;;;1.43;1.00;;;2.00;99.90;;;;;;5070713;28;20037;-83
2023/12/06 03:16:43;;;;;;;2.30;0.90;;;2.00;99.90;;;;;;5069979;28;20024;-84
2023/12/06 03:19:08;;;;;;;1.43;1.13;;;2.00;99.90;;;;;;5071824;28;20020;-83
2023/12/06 03:21:34;;;;;;;1.20;1.10;;;2.00;99.90;;;;;;5069061;28;20028;-84
2023/12/06 03:23:59;;;;;;;1.47;1.10;;;2.00;99.90;;;;;;5068146;28;20030;-83
2023/12/06 03:26:25;;;;;;;0.90;0.90;;;2.00;99.90;;;;;;5069802;28;20032;-84
2023/12/06 03:28:50;;;;;;;2.73;0.93;;;2.00;99.90;;;;;;5068246;28;20036;-84
2023/12/06 03:31:16;;;;;;;1.53;1.00;;;2.00;99.90;;;;;;5069558;28;20039;-84
2023/12/06 03:33:41;;;;;;;1.93;1.10;;;1.90;99.90;;;;;;5066969;28;20035;-85
2023/12/06 03:36:10;;;;;;;1.17;1.03;;;1.90;99.90;;;;;;5068420;28;20031;-85
2023/12/06 03:38:35;;;;;;;2.10;1.23;;;1.90;99.90;;;;;;5067840;28;20024;-85
2023/12/06 03:41:01;;;;;;;1.50;1.10;;;1.80;99.90;;;;;;5066396;28;20047;-86
2023/12/06 03:43:27;;;;;;;3.60;1.40;;;1.90;99.90;;;;;;5070632;28;20044;-84
2023/12/06 03:45:52;;;;;;;1.77;1.43;;;1.80;99.90;;;;;;5066996;28;20666;-85
2023/12/06 03:48:18;;;;;;;2.33;1.30;;;1.80;99.90;;;;;;5068955;28;20074;-84
2023/12/06 03:50:43;;;;;;;1.00;0.90;;;1.80;99.90;;;;;;5071840;28;20040;-85
2023/12/06 03:53:09;;;;;;;5.93;1.40;;;1.70;99.90;;;;;;5068184;28;20028;-85
2023/12/06 03:55:34;;;;;;;2.27;1.23;;;1.70;99.90;;;;;;5065295;28;20483;-85
2023/12/06 03:58:00;;;;;;;1.50;1.30;;;1.70;99.90;;;;;;5063876;28;20025;-86
2023/12/06 04:00:25;;;;;;;4.90;1.87;;;1.70;99.90;;;;;;5063422;28;21083;-85
2023/12/06 04:02:51;;;;;;;1.90;1.33;;;1.70;99.90;;;;;;5062677;28;20055;-86
2023/12/06 04:05:16;;;;;;;1.97;1.33;;;1.70;99.90;;;;;;5061486;28;20028;-85
2023/12/06 04:07:42;;;;;;;2.10;1.40;;;1.70;99.90;;;;;;5062909;28;20028;-85
2023/12/06 04:10:08;;;;;;;2.00;1.47;;;1.70;99.90;;;;;;5064465;28;20063;-86
2023/12/06 04:12:34;;;;;;;1.80;1.33;;;1.70;99.90;;;;;;5063191;28;20484;-86
2023/12/06 04:14:59;;;;;;;2.10;1.70;;;1.70;99.90;;;;;;5063203;28;20074;-85
2023/12/06 04:17:25;;;;;;;1.87;1.50;;;1.60;99.90;;;;;;5062077;28;20380;-85
2023/12/06 04:19:51;;;;;;;2.10;1.50;;;1.60;99.90;;;;;;5065255;28;20035;-85
2023/12/06 04:22:17;;;;;;;2.47;1.60;;;1.60;99.90;;;;;;5073766;28;20059;-86
2023/12/06 04:24:43;;;;;;;2.60;1.70;;;1.60;99.90;;;;;;5077766;28;20020;-86
2023/12/06 04:27:08;;;;;;;5.13;2.20;;;1.60;99.90;;;;;;5071278;28;20033;-85
2023/12/06 04:29:34;;;;;;;3.10;2.07;;;1.50;99.90;;;;;;5058104;28;20037;-85
2023/12/06 04:31:59;;;;;;;2.90;1.70;;;1.50;99.90;;;;;;5059059;28;20039;-85
2023/12/06 04:34:25;;;;;;;1.90;1.60;;;1.50;99.90;;;;;;5058846;28;20043;-85
2023/12/06 04:36:50;;;;;;;2.73;1.73;;;1.50;99.90;;;;;;5057656;28;20071;-86
2023/12/06 04:39:16;;;;;;;2.73;1.60;;;1.50;99.90;;;;;;5058629;28;20032;-85
2023/12/06 04:41:41;;;;;;;2.00;1.60;;;1.50;99.90;;;;;;5058138;28;20032;-85
2023/12/06 04:44:07;;;;;;;2.93;1.67;;;1.50;99.90;;;;;;5060291;28;20082;-85
2023/12/06 04:46:32;;;;;;;2.33;1.63;;;1.40;99.90;;;;;;5059737;28;20174;-85
2023/12/06 04:48:58;;;;;;;5.47;1.67;;;1.40;99.90;;;;;;5058641;28;20036;-85
2023/12/06 04:51:23;;;;;;;4.37;1.90;;;1.40;99.90;;;;;;5062193;28;20191;-85
2023/12/06 04:53:50;;;;;;;6.03;2.10;;;1.40;99.90;;;;;;5062292;28;20050;-85
2023/12/06 04:56:15;;;;;;;2.77;1.77;;;1.40;99.90;;;;;;5062761;28;21537;-85
2023/12/06 04:58:41;;;;;;;4.73;2.03;;;1.40;99.90;;;;;;5064150;28;20024;-85
2023/12/06 05:01:06;;;;;;;3.67;1.87;;;1.40;99.90;;;;;;5062765;28;20029;-85
2023/12/06 05:03:32;;;;;;;4.67;2.70;;;1.40;99.90;;;;;;5064423;28;20033;-84
2023/12/06 05:05:57;;;;;;;2.93;1.80;;;1.40;99.90;;;;;;5063152;28;20771;-84
2023/12/06 05:08:23;;;;;;;4.73;2.27;;;1.40;99.90;;;;;;5062569;28;20039;-85
2023/12/06 05:10:48;;;;;;;12.17;3.83;;;1.40;99.90;;;;;;5065016;28;20024;-85
2023/12/06 05:13:14;;;;;;;3.73;1.97;;;1.50;99.90;;;;;;5065368;28;20707;-84
2023/12/06 05:15:40;;;;;;;3.23;2.10;;;1.50;99.90;;;;;;5064909;28;20036;-84
2023/12/06 05:18:07;;;;;;;4.70;2.10;;;1.50;99.90;;;;;;5065246;28;20100;-84
2023/12/06 05:20:33;;;;;;;3.97;2.33;;;1.50;99.90;;;;;;5065410;28;20032;-84
2023/12/06 05:22:58;;;;;;;3.07;1.90;;;1.50;99.90;;;;;;5064513;28;20055;-84
2023/12/06 05:25:24;;;;;;;5.10;2.37;;;1.50;99.90;;;;;;5065218;28;20029;-84
2023/12/06 05:27:49;;;;;;;3.40;2.00;;;1.50;99.90;;;;;;5064305;28;20098;-84
2023/12/06 05:30:15;;;;;;;2.33;1.73;;;1.60;99.90;;;;;;5065386;28;20032;-84
2023/12/06 05:32:40;;;;;;;5.00;2.10;;;1.60;99.90;;;;;;5062998;28;20025;-84
2023/12/06 05:35:07;;;;;;;4.50;2.20;;;1.60;99.90;;;;;;5063432;28;20165;-86
2023/12/06 05:37:32;;;;;;;3.50;2.13;;;1.60;99.90;;;;;;5062479;28;20036;-85
2023/12/06 05:39:58;;;;;;;4.50;2.20;;;1.60;99.90;;;;;;5062906;28;20021;-85
2023/12/06 05:42:24;;;;;;;4.83;2.00;;;1.60;99.90;;;;;;5062390;28;20028;-84
2023/12/06 05:44:49;;;;;;;4.17;1.77;;;1.60;99.90;;;;;;5063773;28;20047;-86
2023/12/06 05:47:15;;;;;;;5.30;2.07;;;1.70;99.90;;;;;;5061844;28;20115;-85
2023/12/06 05:49:41;;;;;;;7.33;2.10;;;1.70;99.90;;;;;;5061861;28;20115;-85
2023/12/06 05:52:07;;;;;;;4.40;2.40;;;1.70;99.90;;;;;;5063119;28;20436;-85
2023/12/06 05:54:33;;;;;;;4.00;2.33;;;1.70;99.90;;;;;;5061689;28;20037;-85
2023/12/06 05:56:58;;;;;;;4.23;2.00;;;1.60;99.90;;;;;;5061239;28;20059;-84
2023/12/06 05:59:24;;;;;;;4.87;2.10;;;1.70;99.90;;;;;;5060112;28;20056;-85
2023/12/06 06:01:49;;;;;;;4.47;2.30;;;1.70;99.90;;;;;;5058694;28;20032;-85
2023/12/06 06:04:15;;;;;;;2.70;2.30;;;1.70;99.90;;;;;;5063449;28;20060;-86
2023/12/06 06:06:41;;;;;;;3.67;1.87;;;1.70;99.90;;;;;;5060258;28;20037;-85
2023/12/06 06:09:07;;;;;;;3.57;2.03;;;1.70;99.90;;;;;;5062824;28;20082;-86
2023/12/06 06:11:32;;;;;;;3.83;2.17;;;1.70;99.90;;;;;;5062265;28;20559;-85
2023/12/06 06:13:58;;;;;;;4.77;2.20;;;1.60;99.90;;;;;;5059431;28;20074;-86
2023/12/06 06:16:23;;;;;;;4.83;1.73;;;1.70;99.90;;;;;;5059097;28;20043;-85
2023/12/06 06:18:49;;;;;;;3.07;1.77;;;1.70;99.90;;;;;;5062261;28;20020;-85
2023/12/06 06:21:15;;;;;;;3.83;2.00;;;1.70;99.90;;;;;;5060545;28;20028;-86
2023/12/06 06:23:40;;;;;;;2.87;1.80;;;1.70;99.90;;;;;;5060573;28;20047;-84
2023/12/06 06:26:08;;;;;;;3.50;2.10;;;1.60;99.90;;;;;;5063559;28;20028;-83
2023/12/06 06:28:34;;;;;;;5.70;2.43;;;1.60;99.90;;;;;;5064005;28;20657;-84
2023/12/06 06:30:59;;;;;;;4.83;2.60;;;1.60;99.90;;;;;;5061925;28;20123;-83
2023/12/06 06:33:24;;;;;;;5.90;2.30;;;1.60;99.90;;;;;;5061291;28;20086;-72
2023/12/06 06:35:50;;;;;;;4.80;2.47;;;1.60;99.90;;;;;;5062963;28;20047;-85
2023/12/06 06:38:16;;;;;;;5.20;2.30;;;1.60;99.90;;;;;;5062371;28;20853;-85
2023/12/06 06:40:42;;;;;;;5.70;2.60;;;1.60;99.90;;;;;;5064069;28;20126;-84
2023/12/06 06:43:07;;;;;;;5.03;2.43;;;1.60;99.90;;;;;;5061706;28;20103;-84
2023/12/06 06:45:33;;;;;;;6.43;2.50;;;1.60;99.90;;;;;;5063307;28;20198;-85
2023/12/06 06:47:58;;;;;;;4.83;2.67;;;1.60;99.90;;;;;;5063025;28;20108;-85
2023/12/06 06:50:24;;;;;;;4.27;2.37;;;1.60;99.90;;;;;;5065061;28;20028;-84
2023/12/06 06:52:49;;;;;;;4.97;2.50;;;1.60;99.90;;;;;;5065077;28;20085;-84
2023/12/06 06:55:15;;;;;;;5.30;2.07;;;1.60;99.90;;;;;;5065417;28;20163;-84
2023/12/06 06:57:40;;;;;;;6.70;2.50;;;1.60;99.90;;;;;;5065467;28;20111;-84
2023/12/06 07:00:06;;;;;;;4.47;2.10;;;1.60;99.90;;;;;;5065887;28;20885;-83
2023/12/06 07:02:32;;;;;;;4.73;2.73;;;1.60;99.90;;;;;;5065803;28;20189;-84
2023/12/06 07:05:00;;;;;;;3.37;2.27;;;1.60;99.90;;;;;;5066329;28;20088;-83
2023/12/06 07:07:25;;;;;;;4.67;2.17;;;1.60;99.90;;;;;;5064660;28;20832;-83
2023/12/06 07:09:51;;;;;;;5.87;2.20;;;1.60;99.90;;;;;;5065392;28;20029;-84
2023/12/06 07:12:18;;;;;;;3.30;2.00;;;1.60;99.90;;;;;;5054888;28;20032;-86
2023/12/06 07:14:43;;;;;;;6.07;2.30;;;1.60;99.90;;;;;;5056413;28;20024;-84
2023/12/06 07:17:09;;;;;;;4.33;2.30;;;1.60;99.90;;;;;;5063873;28;20480;-84
2023/12/06 07:19:34;;;;;;;10.63;2.30;;;1.60;99.90;;;;;;5074916;28;20033;-87
2023/12/06 07:22:00;;;;;;;3.03;2.00;;;1.60;99.90;;;;;;5090783;28;20016;-89
2023/12/06 07:24:26;;;;;;;5.33;2.20;;;1.70;99.90;;;;;;5086792;28;20028;-84
2023/12/06 07:26:51;;;;;;;6.83;2.50;;;1.70;99.90;;;;;;5066457;28;20487;-85
2023/12/06 07:29:17;;;;;;;4.70;2.03;;;1.70;99.90;;;;;;5066039;28;20080;-85
2023/12/06 07:31:42;;;;;;;2.90;2.00;;;1.70;99.90;;;;;;5064337;28;20020;-86
2023/12/06 07:34:08;;;;;;;3.10;2.00;;;1.70;99.90;;;;;;5061679;28;20048;-85
2023/12/06 07:36:33;;;;;;;6.93;1.80;;;1.70;99.90;;;;;;5062738;28;21431;-85
2023/12/06 07:38:59;;;;;;;5.67;2.10;;;1.80;99.90;;;;;;5062547;28;20506;-85
2023/12/06 07:41:25;;;;;;;4.00;1.87;;;1.80;99.90;;;;;;5061328;28;20032;-85
2023/12/06 07:43:50;;;;;;;2.47;1.70;;;1.80;99.90;;;;;;5062300;28;20038;-85
2023/12/06 07:46:16;;;;;;;3.00;1.67;;;1.80;99.90;;;;;;5063366;28;20064;-84
2023/12/06 07:48:41;;;;;;;3.30;1.80;;;1.80;99.90;;;;;;5062577;28;20039;-85
2023/12/06 07:51:07;;;;;;;3.13;1.87;;;1.90;99.90;;;;;;5061758;28;20062;-85
2023/12/06 07:53:32;;;;;;;6.70;2.10;;;1.90;99.90;;;;;;5060338;28;20045;-89
2023/12/06 07:55:59;;;;;;;4.53;2.10;;;1.90;99.90;;;;;;5062238;28;20051;-84
2023/12/06 07:58:25;;;;;;;3.67;1.83;;;1.90;99.90;;;;;;5061132;28;20040;-85
2023/12/06 08:00:50;;;;;;;2.90;1.80;;;2.00;99.90;;;;;;5062897;28;20028;-84
2023/12/06 08:03:21;;;;;;;3.13;1.97;;;1.90;99.90;;;;;;5060214;28;20081;-84
2023/12/06 08:05:46;;;;;;;3.83;2.10;;;2.00;99.90;;;;;;5060394;28;20056;-86
2023/12/06 08:08:13;;;;;;;2.80;1.90;;;2.00;99.90;;;;;;5060322;28;20067;-84
2023/12/06 08:10:41;;;;;;;3.77;2.63;;;2.00;99.90;;;;;;5062221;28;20024;-84
2023/12/06 08:13:07;;;;;;;3.90;1.63;;;2.00;99.90;;;;;;5061227;28;20037;-85
2023/12/06 08:15:32;;;;;;;2.40;1.57;;;2.10;99.90;;;;;;5060724;28;20021;-84
2023/12/06 08:17:58;;;;;;;3.93;1.90;;;2.10;99.90;;;;;;5059425;28;20035;-87
2023/12/06 08:20:23;;;;;;;3.47;1.63;;;2.10;99.90;;;;;;5062480;28;20043;-84
2023/12/06 08:22:49;;;;;;;2.30;1.80;;;2.10;99.90;;;;;;5062690;28;20078;-84
2023/12/06 08:25:14;;;;;;;2.47;1.53;;;2.10;99.90;;;;;;5061252;28;20473;-85
2023/12/06 08:27:40;;;;;;;2.40;1.60;;;2.10;99.90;;;;;;5061533;28;20057;-84
2023/12/06 08:30:06;;;;;;;4.33;1.60;;;2.10;99.90;;;;;;5062322;28;20123;-85
2023/12/06 08:32:32;;;;;;;3.10;1.70;;;2.10;99.90;;;;;;5061875;28;20495;-88
2023/12/06 08:34:58;;;;;;;3.30;1.87;;;2.20;99.90;;;;;;5061415;28;20181;-84
2023/12/06 08:37:24;;;;;;;2.90;1.63;;;2.20;99.90;;;;;;5060869;28;20028;-85
2023/12/06 08:39:50;;;;;;;2.60;1.60;;;2.20;99.90;;;;;;5062522;28;20079;-84
2023/12/06 08:42:16;;;;;;;2.83;1.40;;;2.20;99.90;;;;;;5061460;28;20921;-85
2023/12/06 08:44:41;;;;;;;2.60;1.77;;;2.20;99.90;;;;;;5059353;28;20081;-84
2023/12/06 08:47:08;;;;;;;2.80;1.40;;;2.30;99.90;;;;;;5058486;28;20037;-84
2023/12/06 08:49:36;;;;;;;2.23;1.40;;;2.30;99.90;;;;;;5060707;28;20020;-84
2023/12/06 08:52:02;;;;;;;5.13;2.10;;;2.40;99.90;;;;;;5059531;28;20698;-86
2023/12/06 08:54:27;;;;;;;5.00;1.80;;;2.40;99.90;;;;;;5056921;28;20033;-84
2023/12/06 08:56:53;;;;;;;2.10;1.30;;;2.50;99.90;;;;;;5057445;28;20017;-85
2023/12/06 08:59:18;;;;;;;2.37;1.40;;;2.50;99.90;;;;;;5059540;28;20027;-85
2023/12/06 09:01:44;;;;;;;3.07;1.43;;;2.50;99.90;;;;;;5062959;28;20031;-84
2023/12/06 09:04:09;;;;;;;2.13;1.40;;;2.60;99.90;;;;;;5062443;28;20023;-84
2023/12/06 09:06:35;;;;;;;2.10;1.23;;;2.70;99.90;;;;;;5061947;28;20054;-84
2023/12/06 09:09:04;;;;;;;4.63;1.30;;;2.70;99.90;;;;;;5061971;28;20372;-84
2023/12/06 09:11:29;;;;;;;2.23;1.47;;;2.80;99.90;;;;;;5061930;28;21401;-84
2023/12/06 09:13:55;;;;;;;2.43;1.30;;;2.80;99.90;;;;;;5062429;28;20035;-83
2023/12/06 09:16:21;;;;;;;2.17;1.50;;;2.70;99.90;;;;;;5062062;28;20029;-85
2023/12/06 09:18:46;;;;;;;5.73;2.30;;;2.80;99.90;;;;;;5062124;28;21262;-84
2023/12/06 09:21:13;;;;;;;2.47;1.63;;;2.70;99.90;;;;;;5063958;28;20060;-84
2023/12/06 09:23:39;;;;;;;1.70;1.47;;;2.70;99.90;;;;;;5062762;28;20476;-84
2023/12/06 09:26:05;;;;;;;2.60;1.60;;;2.70;99.90;;;;;;5062769;28;20035;-84
2023/12/06 09:28:30;;;;;;;3.50;1.97;;;2.70;99.90;;;;;;5062831;28;20029;-83
2023/12/06 09:30:56;;;;;;;4.00;1.97;;;2.70;99.90;;;;;;5062547;28;20055;-84
2023/12/06 09:33:21;;;;;;;2.30;1.90;;;2.70;99.90;;;;;;5063540;28;20552;-83
2023/12/06 09:35:47;;;;;;;2.50;1.60;;;2.70;99.90;;;;;;5062259;28;20036;-84
2023/12/06 09:38:13;;;;;;;2.57;1.90;;;2.80;99.90;;;;;;5066279;28;20115;-83
2023/12/06 09:40:38;;;;;;;1.87;1.50;;;2.80;99.90;;;;;;5067184;28;20029;-83
2023/12/06 09:43:04;;;;;;;2.30;1.37;;;2.80;99.90;;;;;;5067014;28;20480;-83
2023/12/06 09:45:30;;;;;;;3.43;1.80;;;2.80;99.90;;;;;;5067204;28;21504;-84
2023/12/06 09:47:56;;;;;;;3.87;1.87;;;2.80;99.90;;;;;;5067583;28;20032;-83
2023/12/06 09:50:25;;;;;;;3.63;2.00;;;2.80;99.90;;;;;;5068029;28;20025;-83
2023/12/06 09:52:54;;;;;;;3.30;1.50;;;2.80;99.90;;;;;;5066474;28;20052;-82
2023/12/06 09:55:24;;;;;;;2.30;1.70;;;2.80;99.90;;;;;;5066858;28;20037;-82
2023/12/06 09:57:54;;;;;;;2.70;1.90;;;2.90;99.90;;;;;;5068860;28;21436;-82
2023/12/06 10:00:20;;;;;;;2.07;1.50;;;2.90;99.90;;;;;;5069208;28;20111;-83
2023/12/06 10:02:51;;;;;;;2.80;2.00;;;2.90;99.90;;;;;;5067825;28;20044;-82
2023/12/06 10:05:16;;;;;;;2.60;1.90;;;2.90;99.90;;;;;;5068317;28;20020;-82
2023/12/06 10:07:42;;;;;;;5.80;2.03;;;3.00;99.90;;;;;;5068707;28;20021;-82
2023/12/06 10:10:19;;;;;;;2.90;1.97;;;3.00;99.90;;;;;;5067672;28;20107;-82
2023/12/06 10:12:53;;;;;;;3.40;2.13;;;3.00;99.90;;;;;;5067927;28;20028;-82
2023/12/06 10:15:19;;;;;;;2.37;1.97;;;3.10;99.90;;;;;;5069126;28;20029;-81
2023/12/06 10:17:46;;;;;;;3.20;1.97;;;3.10;99.90;;;;;;5077452;28;20028;-84
2023/12/06 10:20:13;;;;;;;5.13;2.03;;;3.10;99.90;;;;;;5075915;28;20035;-82
2023/12/06 10:22:39;;;;;;;4.43;2.00;;;3.10;99.90;;;;;;5067490;28;20024;-84
2023/12/06 10:25:06;;;;;;;2.63;2.00;;;3.10;99.90;;;;;;5064550;28;20025;-84
2023/12/06 10:27:32;;;;;;;3.20;1.80;;;3.10;99.90;;;;;;5063133;28;20416;-83
2023/12/06 10:29:59;;;;;;;2.70;1.90;;;3.20;99.90;;;;;;5065348;28;20044;-84
2023/12/06 10:32:25;;;;;;;2.40;1.90;;;3.20;99.90;;;;;;5063823;28;20025;-84
2023/12/06 10:34:54;;;;;;;2.90;2.00;;;3.20;99.90;;;;;;5066686;28;20679;-85
2023/12/06 10:37:21;;;;;;;3.40;2.20;;;3.20;99.90;;;;;;5066920;28;20063;-84
2023/12/06 10:39:49;;;;;;;2.93;2.10;;;3.20;99.90;;;;;;5063352;28;20025;-84
2023/12/06 10:42:19;;;;;;;4.30;1.87;;;3.20;99.90;;;;;;5054129;28;20042;-85
2023/12/06 10:44:45;;;;;;;3.47;2.00;;;3.30;99.90;;;;;;5051735;28;20794;-84
2023/12/06 10:47:12;;;;;;;3.57;2.30;;;3.30;99.90;;;;;;5054309;28;20032;-84
2023/12/06 10:49:38;;;;;;;4.50;2.20;;;3.30;99.90;;;;;;5052175;28;21052;-84
2023/12/06 10:52:04;;;;;;;3.47;2.17;;;3.30;99.90;;;;;;5053365;28;20028;-84
2023/12/06 10:54:30;;;;;;;4.07;2.20;;;3.20;99.90;;;;;;5050546;28;20395;-86
2023/12/06 10:56:56;;;;;;;5.47;2.17;;;3.30;99.90;;;;;;5052258;28;20032;-85
2023/12/06 10:59:25;;;;;;;2.10;1.70;;;3.30;99.90;;;;;;5053439;28;20032;-85
2023/12/06 11:01:54;;;;;;;3.33;2.13;;;3.40;99.90;;;;;;5054016;28;22229;-85
2023/12/06 11:04:24;;;;;;;4.57;2.20;;;3.40;99.90;;;;;;5053323;28;20056;-85
2023/12/06 11:07:16;;;;;;;3.67;2.30;;;3.50;99.90;;;;;;5053514;28;20526;-86
2023/12/06 11:09:54;;;;;;;4.40;2.23;;;3.50;99.90;;;;;;5055717;28;20036;-85
2023/12/06 11:12:38;;;;;;;5.80;2.40;;;3.60;99.90;;;;;;5068332;28;21524;-82
2023/12/06 11:15:16;;;;;;;3.53;2.30;;;3.60;99.90;;;;;;5068457;28;20044;-82
2023/12/06 11:17:45;;;;;;;3.87;2.23;;;3.60;99.90;;;;;;5066901;28;20028;-82
2023/12/06 11:20:11;;;;;;;5.83;2.63;;;3.60;99.90;;;;;;5069064;28;20028;-82
2023/12/06 11:22:37;;;;;;;4.60;2.50;;;3.60;99.90;;;;;;5068460;28;20086;-82
2023/12/06 11:25:03;;;;;;;4.20;2.60;;;3.60;99.90;;;;;;5070750;28;20115;-82
2023/12/06 11:27:29;;;;;;;3.83;2.10;;;3.60;99.90;;;;;;5071788;28;20617;-82
2023/12/06 11:29:55;;;;;;;4.07;2.57;;;3.50;99.90;;;;;;5066975;28;20036;-82
2023/12/06 11:32:21;;;;;;;8.03;2.20;;;3.50;99.90;;;;;;5067581;28;20029;-82
2023/12/06 11:34:58;;;;;;;2.70;2.00;;;3.50;99.90;;;;;;5067457;28;20036;-82
2023/12/06 11:37:23;;;;;;;2.83;2.07;;;3.50;99.90;;;;;;5067571;28;21411;-82
2023/12/06 11:40:20;;;;;;;3.47;2.10;;;3.50;99.90;;;;;;5068395;28;20036;-82
2023/12/06 11:42:54;;;;;;;4.60;2.30;;;3.50;99.90;;;;;;5065743;28;20108;-82
2023/12/06 11:45:31;;;;;;;2.73;2.00;;;3.50;99.90;;;;;;5069414;28;20032;-82
2023/12/06 11:48:01;;;;;;;2.80;2.00;;;3.50;99.90;;;;;;5068061;28;20028;-82
2023/12/06 11:50:27;;;;;;;5.60;2.13;;;3.40;99.90;;;;;;5067730;28;20036;-81
2023/12/06 11:52:54;;;;;;;2.40;1.93;;;3.40;99.90;;;;;;5067129;28;20033;-82
2023/12/06 11:55:20;;;;;;;3.47;2.00;;;3.40;99.90;;;;;;5067217;28;20056;-83
2023/12/06 11:58:06;;;;;;;3.20;2.10;;;3.50;99.90;;;;;;5068089;28;20116;-82
2023/12/06 12:00:32;;;;;;;2.30;1.90;;;3.50;99.90;;;;;;5097688;28;20122;-82
2023/12/06 12:03:00;;;;;;;4.17;2.47;;;3.40;99.90;;;;;;5066143;28;20025;-81
2023/12/06 12:05:25;;;;;;;3.30;2.47;;;3.40;99.90;;;;;;5056109;28;20039;-82
2023/12/06 12:07:52;;;;;;;5.73;2.30;;;3.40;99.90;;;;;;5057072;28;20503;-82
2023/12/06 12:10:19;;;;;;;3.20;2.40;;;3.30;99.90;;;;;;5057715;28;20031;-83
2023/12/06 12:12:46;;;;;;;4.67;2.70;;;3.30;99.90;;;;;;5056445;28;20033;-82
2023/12/06 12:15:11;;;;;;;5.13;2.10;;;3.30;99.90;;;;;;5056275;28;20059;-83
2023/12/06 12:17:37;;;;;;;5.97;2.20;;;3.30;99.90;;;;;;5056283;28;20574;-82
2023/12/06 12:20:06;;;;;;;4.70;2.50;;;3.20;99.90;;;;;;5056517;28;20063;-83
2023/12/06 12:22:41;;;;;;;2.83;2.10;;;3.30;99.90;;;;;;5055090;28;20028;-82
2023/12/06 12:25:07;;;;;;;4.97;2.30;;;3.20;99.90;;;;;;5055259;28;20024;-81
2023/12/06 12:27:33;;;;;;;5.13;2.50;;;3.20;99.90;;;;;;5054745;28;20021;-82
2023/12/06 12:29:58;;;;;;;2.90;2.20;;;3.20;99.90;;;;;;5055665;28;20028;-82
2023/12/06 12:32:26;;;;;;;5.83;2.40;;;3.20;99.90;;;;;;5053318;28;21137;-82
2023/12/06 12:34:52;;;;;;;3.70;2.30;;;3.20;99.90;;;;;;5055558;28;20071;-82
2023/12/06 12:37:18;;;;;;;3.10;2.30;;;3.20;99.90;;;;;;5061849;28;20048;-82
2023/12/06 12:39:43;;;;;;;2.93;2.00;;;3.20;99.90;;;;;;5062729;28;20033;-82
2023/12/06 12:42:09;;;;;;;3.07;2.10;;;3.20;99.90;;;;;;5063288;28;20047;-84
2023/12/06 12:44:35;;;;;;;3.43;2.13;;;3.20;99.90;;;;;;5064312;28;20628;-84
2023/12/06 12:47:01;;;;;;;3.77;2.00;;;3.20;99.90;;;;;;5063640;28;20036;-84
2023/12/06 12:49:26;;;;;;;3.33;2.00;;;3.30;99.90;;;;;;5062204;28;20031;-84
2023/12/06 12:51:52;;;;;;;2.87;2.00;;;3.30;99.90;;;;;;5063963;28;20032;-82
2023/12/06 12:54:17;;;;;;;3.40;2.00;;;3.30;99.90;;;;;;5060663;28;20017;-82